Time;durP1;ratioP1;P1;durP2;ratioP2;P2;SDS_P1;SDS_P2;PMS_P1;PMS_P2;Temp;Humidity;BMP_temperature;BMP_pressure;BME280_temperature;BME280_humidity;BME280_pressure;Samples;Min_cycle;Max_cycle;Signal;HPM_P1;HPM_P2
2023/08/13 00:02:24;;;;;;;3.65;1.40;;;18.90;99.90;;;18.59;100.00;98100.91;5004158;28;21018;-74
2023/08/13 00:04:52;;;;;;;4.13;1.30;;;18.90;99.90;;;18.60;100.00;98099.94;5005823;28;20082;-73
2023/08/13 00:07:19;;;;;;;2.45;1.10;;;18.90;99.90;;;18.63;100.00;98106.78;4990177;28;20128;-74
2023/08/13 00:09:46;;;;;;;2.15;1.10;;;18.90;99.90;;;18.53;100.00;98094.25;5002771;28;20056;-72
2023/08/13 00:12:13;;;;;;;5.07;1.30;;;19.00;99.90;;;18.57;100.00;98098.34;5003383;28;20049;-74
2023/08/13 00:14:41;;;;;;;7.88;2.03;;;19.00;99.90;;;18.64;100.00;98101.41;5002982;28;20037;-74
2023/08/13 00:17:08;;;;;;;2.80;1.13;;;19.00;99.90;;;18.69;100.00;98101.94;5003021;28;20050;-74
2023/08/13 00:19:37;;;;;;;4.78;1.42;;;19.00;99.90;;;18.75;100.00;98098.06;5007202;28;20407;-74
2023/08/13 00:22:04;;;;;;;4.47;1.20;;;19.00;99.90;;;18.76;100.00;98103.22;5008015;28;20060;-73
2023/08/13 00:24:34;;;;;;;2.67;1.05;;;19.00;99.90;;;18.85;100.00;98108.84;5003358;28;20066;-74
2023/08/13 00:27:02;;;;;;;6.05;1.40;;;19.10;99.90;;;18.81;100.00;98108.19;5002119;28;20716;-74
2023/08/13 00:29:31;;;;;;;3.70;1.20;;;19.10;99.90;;;18.85;100.00;98101.78;5000535;28;20046;-74
2023/08/13 00:31:58;;;;;;;3.65;1.63;;;19.10;99.90;;;18.79;100.00;98100.44;5003422;28;20054;-74
2023/08/13 00:34:25;;;;;;;3.17;1.95;;;19.20;99.90;;;18.84;100.00;98107.13;5003205;28;20052;-74
2023/08/13 00:36:53;;;;;;;4.00;2.00;;;19.20;99.90;;;18.80;100.00;98104.72;5002055;28;20057;-74
2023/08/13 00:39:21;;;;;;;3.00;1.38;;;19.20;99.90;;;18.85;100.00;98101.78;5016594;28;20543;-74
2023/08/13 00:41:49;;;;;;;4.30;1.77;;;19.30;99.90;;;18.91;100.00;98109.28;5000131;28;20590;-74
2023/08/13 00:44:17;;;;;;;4.32;1.70;;;19.30;99.90;;;18.81;100.00;98098.50;5004719;28;20168;-74
2023/08/13 00:46:44;;;;;;;6.53;1.83;;;19.30;99.90;;;18.77;100.00;98102.31;5003248;28;20046;-74
2023/08/13 00:49:15;;;;;;;3.75;1.77;;;19.30;99.90;;;18.84;100.00;98102.75;5004235;28;20400;-76
2023/08/13 00:51:42;;;;;;;6.75;2.03;;;19.20;99.90;;;18.72;100.00;98100.88;5020157;28;20049;-74
2023/08/13 00:54:09;;;;;;;7.35;2.05;;;19.20;99.90;;;18.77;100.00;98099.69;5004687;28;20515;-74
2023/08/13 00:56:38;;;;;;;9.00;2.17;;;19.20;99.90;;;18.72;100.00;98099.09;5014309;28;20132;-74
2023/08/13 00:59:05;;;;;;;5.93;1.80;;;19.20;99.90;;;18.73;100.00;98079.75;5004735;28;20049;-74
2023/08/13 01:01:33;;;;;;;7.55;1.80;;;19.20;99.90;;;18.73;100.00;98084.19;5004128;28;20194;-74
2023/08/13 01:04:01;;;;;;;4.20;1.67;;;19.30;99.90;;;18.72;100.00;98083.31;5002136;28;20057;-74
2023/08/13 01:06:40;;;;;;;5.40;1.50;;;19.20;99.90;;;18.66;100.00;98093.44;4999943;28;20042;-74
2023/08/13 01:09:35;;;;;;;2.88;1.75;;;19.20;99.90;;;18.64;100.00;98088.28;4998854;28;20053;-74
2023/08/13 01:12:18;;;;;;;4.50;1.92;;;19.20;99.90;;;18.67;100.00;98088.06;5004524;28;20129;-75
2023/08/13 01:15:03;;;;;;;4.95;1.95;;;19.20;99.90;;;18.69;100.00;98082.69;5001763;28;20594;-74
2023/08/13 01:17:31;;;;;;;5.13;1.88;;;19.20;99.90;;;18.54;100.00;98080.16;5002920;28;20404;-74
2023/08/13 01:19:59;;;;;;;3.70;1.77;;;19.20;99.90;;;18.54;100.00;98074.03;5003805;28;20054;-74
2023/08/13 01:22:27;;;;;;;5.43;2.00;;;19.10;99.90;;;18.51;100.00;98074.25;5007128;28;20705;-75
2023/08/13 01:24:55;;;;;;;3.08;1.42;;;19.10;99.90;;;18.53;100.00;98081.09;5006968;28;20135;-75
2023/08/13 01:27:45;;;;;;;3.78;1.55;;;19.10;99.90;;;18.49;100.00;98076.16;5004171;28;20508;-75
2023/08/13 01:30:20;;;;;;;4.65;1.90;;;19.10;99.90;;;18.43;100.00;98069.53;5020578;28;20089;-75
2023/08/13 01:32:56;;;;;;;5.55;1.85;;;19.00;99.90;;;18.38;100.00;98072.47;4989417;28;20400;-74
2023/08/13 01:35:25;;;;;;;2.63;1.30;;;19.00;99.90;;;18.32;100.00;98074.66;5003738;28;20128;-75
2023/08/13 01:37:56;;;;;;;3.28;1.40;;;18.90;99.90;;;18.36;100.00;98069.09;5001171;28;20061;-74
2023/08/13 01:40:23;;;;;;;3.10;1.35;;;18.90;99.90;;;18.36;100.00;98082.22;5020830;28;20050;-75
2023/08/13 01:42:50;;;;;;;2.40;1.30;;;18.90;99.90;;;18.34;100.00;98078.03;4999036;28;20137;-73
2023/08/13 01:45:17;;;;;;;4.55;1.65;;;18.90;99.90;;;18.32;100.00;98090.41;5002529;28;20716;-75
2023/08/13 01:47:45;;;;;;;5.28;1.45;;;18.90;99.90;;;18.41;100.00;98081.94;5004261;28;20470;-75
2023/08/13 01:50:13;;;;;;;3.95;1.20;;;18.90;99.90;;;18.40;100.00;98085.47;5005926;28;20058;-74
2023/08/13 01:52:40;;;;;;;3.20;1.48;;;18.90;99.90;;;18.45;100.00;98082.53;5006301;28;20045;-75
2023/08/13 01:55:08;;;;;;;3.67;1.10;;;18.90;99.90;;;18.41;100.00;98076.66;4999073;28;20085;-75
2023/08/13 01:57:35;;;;;;;3.63;1.55;;;18.90;99.90;;;18.41;100.00;98078.47;4996992;28;20553;-75
2023/08/13 02:00:03;;;;;;;3.75;1.65;;;19.00;99.90;;;18.39;100.00;98066.25;5002627;28;20111;-75
2023/08/13 02:02:30;;;;;;;3.50;1.40;;;18.90;99.90;;;18.44;100.00;98067.72;5004587;28;20061;-75
2023/08/13 02:04:57;;;;;;;6.53;1.35;;;18.90;99.90;;;18.40;100.00;98074.97;5000780;28;20438;-75
2023/08/13 02:07:25;;;;;;;5.28;1.50;;;18.90;99.90;;;18.39;100.00;98071.50;5001009;28;20074;-75
2023/08/13 02:09:52;;;;;;;3.33;1.58;;;18.90;99.90;;;18.31;100.00;98089.56;4999225;28;20050;-75
2023/08/13 02:12:19;;;;;;;2.58;1.40;;;18.90;99.90;;;18.34;100.00;98084.13;5002707;28;20154;-75
2023/08/13 02:14:47;;;;;;;7.47;2.00;;;18.90;99.90;;;18.25;100.00;98073.38;5004056;28;20422;-76
2023/08/13 02:17:14;;;;;;;3.60;1.35;;;18.90;99.90;;;18.29;100.00;98073.06;5002322;28;20053;-75
2023/08/13 02:19:41;;;;;;;3.40;1.80;;;18.90;99.90;;;18.19;100.00;98080.69;5005042;28;20081;-73
2023/08/13 02:22:09;;;;;;;5.15;2.00;;;18.80;99.90;;;18.17;100.00;98092.25;5004386;28;20065;-72
2023/08/13 02:24:39;;;;;;;4.43;1.85;;;18.80;99.90;;;18.14;100.00;98088.03;4996669;28;20060;-73
2023/08/13 02:27:06;;;;;;;4.03;1.63;;;18.80;99.90;;;18.15;100.00;98079.25;5000972;28;20115;-75
2023/08/13 02:29:33;;;;;;;5.07;1.38;;;18.80;99.90;;;18.17;100.00;98084.38;5006174;28;20085;-74
2023/08/13 02:32:01;;;;;;;2.70;1.40;;;18.70;99.90;;;18.06;100.00;98077.19;5002164;28;20069;-74
2023/08/13 02:34:33;;;;;;;3.35;1.67;;;18.70;99.90;;;18.08;100.00;98077.09;4998869;28;20051;-73
2023/08/13 02:37:00;;;;;;;3.83;1.92;;;18.60;99.90;;;18.07;100.00;98083.31;4981093;28;20054;-73
2023/08/13 02:39:28;;;;;;;5.57;2.10;;;18.60;99.90;;;18.06;100.00;98073.72;5003585;28;20070;-73
2023/08/13 02:41:55;;;;;;;3.33;1.83;;;18.60;99.90;;;18.01;100.00;98073.19;4986051;28;20050;-74
2023/08/13 02:44:24;;;;;;;5.30;2.38;;;18.60;99.90;;;18.06;100.00;98071.94;4991075;28;20049;-73
2023/08/13 02:46:51;;;;;;;4.35;2.35;;;18.60;99.90;;;18.05;100.00;98070.25;5003960;28;20258;-73
2023/08/13 02:49:18;;;;;;;4.78;2.90;;;18.60;99.90;;;18.03;100.00;98069.50;5004937;28;20449;-73
2023/08/13 02:51:46;;;;;;;6.85;3.72;;;18.60;99.90;;;18.03;100.00;98072.13;5002075;28;20528;-73
2023/08/13 02:54:13;;;;;;;5.32;2.97;;;18.60;99.90;;;18.04;100.00;98076.47;4989393;28;20105;-73
2023/08/13 02:56:44;;;;;;;6.72;3.72;;;18.50;99.90;;;18.06;100.00;98078.97;5001994;28;20073;-73
2023/08/13 02:59:12;;;;;;;8.60;4.55;;;18.50;99.90;;;17.96;100.00;98062.97;5016604;28;20530;-72
2023/08/13 03:01:44;;;;;;;6.45;4.63;;;18.40;99.90;;;17.94;100.00;98059.59;5002845;28;20060;-73
2023/08/13 03:04:12;;;;;;;6.95;4.53;;;18.40;99.90;;;17.97;100.00;98060.25;5016550;28;20137;-73
2023/08/13 03:06:39;;;;;;;6.85;4.43;;;18.50;99.90;;;18.02;100.00;98054.72;5003483;28;20145;-73
2023/08/13 03:09:07;;;;;;;8.35;4.95;;;18.60;99.90;;;18.06;100.00;98045.66;4988199;28;20530;-74
2023/08/13 03:11:34;;;;;;;9.85;6.20;;;18.50;99.90;;;18.00;100.00;98046.09;4999034;28;20057;-73
2023/08/13 03:14:02;;;;;;;7.45;5.05;;;18.50;99.90;;;18.01;100.00;98046.91;4986202;28;20054;-74
2023/08/13 03:16:29;;;;;;;12.63;7.32;;;18.50;99.90;;;17.97;100.00;98049.75;5001299;28;20100;-73
2023/08/13 03:18:56;;;;;;;7.18;5.15;;;18.50;99.90;;;18.02;100.00;98046.81;5002929;28;20058;-74
2023/08/13 03:21:24;;;;;;;10.13;5.65;;;18.50;99.90;;;18.01;100.00;98039.88;5001703;28;20049;-74
2023/08/13 03:23:51;;;;;;;10.52;6.75;;;18.50;99.90;;;17.94;100.00;98049.94;5000829;28;20287;-72
2023/08/13 03:26:18;;;;;;;9.95;6.05;;;18.50;99.90;;;17.88;100.00;98052.97;5014880;28;20049;-72
2023/08/13 03:28:45;;;;;;;10.07;7.90;;;18.50;99.90;;;17.89;100.00;98048.56;4999932;28;20046;-73
2023/08/13 03:31:13;;;;;;;8.48;5.63;;;18.40;99.90;;;17.99;100.00;98049.63;5016469;28;20125;-73
2023/08/13 03:33:40;;;;;;;11.60;6.78;;;18.40;99.90;;;17.89;100.00;98053.81;5003841;28;20050;-73
2023/08/13 03:36:08;;;;;;;8.15;6.07;;;18.40;99.90;;;17.85;100.00;98053.16;5005851;28;20053;-73
2023/08/13 03:38:35;;;;;;;13.38;7.28;;;18.40;99.90;;;17.85;100.00;98053.16;4968962;28;20061;-73
2023/08/13 03:41:03;;;;;;;9.98;6.85;;;18.30;99.90;;;17.85;100.00;98052.31;4999647;28;20054;-73
2023/08/13 03:43:30;;;;;;;10.48;5.85;;;18.30;99.90;;;17.81;100.00;98050.78;5018020;28;20073;-73
2023/08/13 03:45:57;;;;;;;8.30;5.60;;;18.20;99.90;;;17.82;100.00;98050.75;4985736;28;20050;-72
2023/08/13 03:48:25;;;;;;;12.27;6.72;;;18.30;99.90;;;17.81;100.00;98048.16;4987868;28;20072;-73
2023/08/13 03:50:52;;;;;;;9.40;7.03;;;18.30;99.90;;;17.85;100.00;98054.94;5001974;28;20159;-73
2023/08/13 03:53:22;;;;;;;9.95;7.78;;;18.30;99.90;;;17.82;100.00;98050.75;5020370;28;20046;-73
2023/08/13 03:55:49;;;;;;;13.73;7.65;;;18.30;99.90;;;17.80;100.00;98051.75;5000913;28;20050;-73
2023/08/13 03:58:16;;;;;;;11.88;8.07;;;18.30;99.90;;;17.85;100.00;98063.66;5000252;28;20088;-73
2023/08/13 04:00:44;;;;;;;10.43;8.00;;;18.30;99.90;;;17.81;100.00;98053.44;5000060;28;20064;-74
2023/08/13 04:03:10;;;;;;;11.52;9.10;;;18.30;99.90;;;17.88;100.00;98058.22;5016428;28;20578;-73
2023/08/13 04:05:52;;;;;;;13.20;8.90;;;18.30;99.90;;;17.89;100.00;98049.41;5000268;28;20100;-73
2023/08/13 04:08:20;;;;;;;13.02;8.77;;;18.30;99.90;;;17.81;100.00;98051.66;5004360;28;20042;-73
2023/08/13 04:10:49;;;;;;;15.30;9.70;;;18.20;99.90;;;17.68;100.00;98053.38;5007524;28;20145;-73
2023/08/13 04:13:16;;;;;;;12.40;8.48;;;18.20;99.90;;;17.72;100.00;98054.84;5003460;28;20612;-73
2023/08/13 04:15:44;;;;;;;17.20;9.98;;;18.20;99.90;;;17.68;100.00;98059.47;5004626;28;20078;-73
2023/08/13 04:18:11;;;;;;;11.82;8.60;;;18.20;99.90;;;17.68;100.00;98061.25;5005603;28;20057;-72
2023/08/13 04:20:41;;;;;;;20.95;10.73;;;18.20;99.90;;;17.62;100.00;98061.66;5005173;28;20077;-73
2023/08/13 04:23:09;;;;;;;14.52;10.00;;;18.10;99.90;;;17.71;100.00;98069.78;5001544;28;20153;-72
2023/08/13 04:25:36;;;;;;;16.27;9.30;;;18.10;99.90;;;17.69;100.00;98066.41;4989857;28;20065;-73
2023/08/13 04:28:03;;;;;;;11.50;7.78;;;18.10;99.90;;;17.69;100.00;98065.56;5020643;28;20054;-73
2023/08/13 04:30:30;;;;;;;13.18;8.45;;;18.10;99.90;;;17.70;100.00;98064.63;5007773;28;20107;-74
2023/08/13 04:32:57;;;;;;;13.13;9.27;;;18.10;99.90;;;17.70;100.00;98069.88;4992676;28;20050;-73
2023/08/13 04:35:26;;;;;;;17.38;8.80;;;18.10;99.90;;;17.70;100.00;98062.00;4989718;28;20068;-73
2023/08/13 04:37:53;;;;;;;16.30;9.95;;;18.00;99.90;;;17.64;100.00;98068.47;5002789;28;20789;-73
2023/08/13 04:40:20;;;;;;;12.95;8.68;;;18.00;99.90;;;17.66;100.00;98063.97;5019282;28;20050;-73
2023/08/13 04:42:48;;;;;;;12.13;7.18;;;18.10;99.90;;;17.75;100.00;98073.06;5004531;28;20133;-73
2023/08/13 04:45:15;;;;;;;14.43;7.75;;;18.10;99.90;;;17.77;100.00;98063.31;5004812;28;20209;-72
2023/08/13 04:47:43;;;;;;;15.10;9.30;;;18.10;99.90;;;17.82;100.00;98052.53;5006989;28;20065;-73
2023/08/13 04:50:10;;;;;;;20.08;10.02;;;18.10;99.90;;;17.81;100.00;98061.31;4988748;28;20046;-73
2023/08/13 04:52:37;;;;;;;15.07;8.20;;;18.10;99.90;;;17.93;100.00;98064.03;5004020;28;20053;-73
2023/08/13 04:55:05;;;;;;;23.48;12.02;;;18.00;99.90;;;17.92;100.00;98054.44;5002178;28;20116;-73
2023/08/13 04:57:32;;;;;;;19.55;10.52;;;18.00;99.90;;;18.01;100.00;98060.06;5000631;28;20073;-73
2023/08/13 05:00:00;;;;;;;21.00;12.63;;;18.00;99.90;;;17.97;100.00;98062.03;5002443;28;20049;-72
2023/08/13 05:02:27;;;;;;;20.73;11.63;;;18.00;99.90;;;18.02;100.00;98064.34;5007022;28;20060;-73
2023/08/13 05:04:54;;;;;;;18.63;11.68;;;18.10;99.90;;;17.98;100.00;98063.72;5006182;28;20077;-73
2023/08/13 05:07:22;;;;;;;16.73;10.98;;;18.10;99.90;;;18.19;100.00;98056.22;5000901;28;20053;-74
2023/08/13 05:09:50;;;;;;;16.23;11.13;;;18.10;99.90;;;18.23;100.00;98062.97;5001901;28;20144;-73
2023/08/13 05:12:17;;;;;;;12.23;10.40;;;18.20;99.90;;;18.12;100.00;98052.31;5001586;28;20665;-73
2023/08/13 05:14:44;;;;;;;14.25;11.27;;;18.30;99.90;;;18.01;100.00;98066.13;5004731;28;20072;-73
2023/08/13 05:17:22;;;;;;;14.43;11.65;;;18.40;99.90;;;18.00;100.00;98061.00;4998446;28;20097;-73
2023/08/13 05:19:49;;;;;;;10.80;9.65;;;18.40;99.90;;;18.10;100.00;98060.28;5002201;28;20053;-74
2023/08/13 05:22:17;;;;;;;12.45;10.23;;;18.50;99.90;;;18.18;100.00;98060.63;4989937;28;20117;-73
2023/08/13 05:24:47;;;;;;;12.38;10.80;;;18.50;99.90;;;18.13;100.00;98062.72;5006748;28;20085;-73
2023/08/13 05:27:14;;;;;;;12.80;9.85;;;18.50;99.90;;;18.32;100.00;98064.97;5004789;28;20049;-73
2023/08/13 05:29:41;;;;;;;11.68;9.90;;;18.50;99.90;;;18.17;100.00;98066.81;5001241;28;20540;-73
2023/08/13 05:32:08;;;;;;;14.80;10.38;;;18.40;99.90;;;18.10;100.00;98059.44;5002588;28;20045;-74
2023/08/13 05:34:35;;;;;;;13.85;10.77;;;18.50;99.90;;;18.09;100.00;98066.50;5000516;28;20115;-73
2023/08/13 05:37:03;;;;;;;12.30;10.18;;;18.50;99.90;;;18.10;100.00;98060.28;4999120;28;20313;-73
2023/08/13 05:39:30;;;;;;;15.98;10.18;;;18.50;99.90;;;18.11;100.00;98066.38;5007116;28;20069;-73
2023/08/13 05:41:57;;;;;;;10.32;8.82;;;18.40;99.90;;;18.24;100.00;98069.06;5016465;28;20076;-74
2023/08/13 05:44:24;;;;;;;10.60;7.63;;;18.50;99.90;;;18.25;100.00;98066.34;5005113;28;20046;-73
2023/08/13 05:46:51;;;;;;;11.00;7.85;;;18.50;99.90;;;18.32;100.00;98061.50;5001930;28;20289;-73
2023/08/13 05:49:18;;;;;;;10.75;8.43;;;18.50;99.90;;;18.41;100.00;98067.94;5001967;28;20050;-73
2023/08/13 05:51:48;;;;;;;14.73;8.60;;;18.50;99.90;;;18.31;100.00;98065.06;5002716;28;20506;-74
2023/08/13 05:54:16;;;;;;;10.75;9.02;;;18.60;99.90;;;18.43;100.00;98061.66;4988499;28;20056;-73
2023/08/13 05:56:43;;;;;;;9.77;8.52;;;18.70;99.90;;;18.64;100.00;98076.91;5001198;28;20132;-73
2023/08/13 05:59:10;;;;;;;13.98;8.93;;;18.70;99.90;;;18.43;100.00;98069.53;5003527;28;20205;-72
2023/08/13 06:01:37;;;;;;;10.30;8.80;;;18.70;99.90;;;18.80;100.00;98070.53;5004332;28;20085;-73
2023/08/13 06:04:04;;;;;;;13.35;9.40;;;18.70;99.90;;;18.67;100.00;98064.38;5004799;28;20193;-75
2023/08/13 06:06:32;;;;;;;9.80;8.32;;;18.60;99.90;;;18.60;100.00;98069.22;5004085;28;20045;-74
2023/08/13 06:08:59;;;;;;;14.25;11.40;;;18.70;99.90;;;18.71;100.00;98065.88;5000576;28;20050;-75
2023/08/13 06:11:26;;;;;;;16.15;11.05;;;18.70;99.90;;;18.71;100.00;98057.97;4988599;28;20080;-75
2023/08/13 06:13:53;;;;;;;13.13;10.88;;;18.70;99.90;;;18.79;100.00;98055.72;5002428;28;20050;-74
2023/08/13 06:16:20;;;;;;;14.13;10.43;;;18.80;99.90;;;18.75;100.00;98041.06;4989714;28;20077;-74
2023/08/13 06:18:49;;;;;;;13.00;11.63;;;18.90;99.90;;;18.75;100.00;98048.94;4999681;28;20050;-75
2023/08/13 06:21:16;;;;;;;13.65;11.25;;;18.90;99.90;;;18.73;100.00;98055.25;5003962;28;20438;-75
2023/08/13 06:23:43;;;;;;;12.07;10.13;;;18.90;99.90;;;18.92;100.00;98044.34;5004308;28;20049;-75
2023/08/13 06:26:10;;;;;;;9.70;8.70;;;19.00;99.90;;;19.05;100.00;98045.19;5002762;28;20064;-74
2023/08/13 06:28:40;;;;;;;10.98;9.88;;;19.10;99.90;;;18.95;100.00;98034.47;5001512;28;20073;-74
2023/08/13 06:31:07;;;;;;;10.43;9.05;;;19.10;99.90;;;19.21;100.00;98024.72;5001306;28;20057;-75
2023/08/13 06:33:34;;;;;;;9.43;8.00;;;19.20;99.90;;;19.29;100.00;98023.34;4999346;28;20053;-75
2023/08/13 06:36:01;;;;;;;9.63;8.07;;;19.30;99.90;;;19.57;100.00;98015.16;5002573;28;20471;-75
2023/08/13 06:38:31;;;;;;;12.18;7.35;;;19.30;99.90;;;19.57;100.00;98012.53;5005232;28;20104;-75
2023/08/13 06:41:03;;;;;;;11.02;7.10;;;19.30;99.90;;;19.26;100.00;98013.03;5000174;28;20054;-75
2023/08/13 06:43:31;;;;;;;7.38;6.15;;;19.30;99.90;;;19.55;100.00;98009.16;5004455;28;20058;-75
2023/08/13 06:45:58;;;;;;;7.55;5.20;;;19.50;99.90;;;19.62;100.00;98006.94;5001329;28;20166;-74
2023/08/13 06:48:28;;;;;;;5.45;4.95;;;19.50;99.90;;;19.81;100.00;97999.38;5002250;28;20049;-75
2023/08/13 06:50:56;;;;;;;6.90;3.90;;;19.70;99.90;;;20.06;100.00;97985.22;5001722;28;20053;-75
2023/08/13 06:53:24;;;;;;;6.50;3.70;;;19.90;99.90;;;20.22;100.00;97977.00;5004183;28;20616;-75
2023/08/13 06:55:52;;;;;;;5.82;3.70;;;20.20;99.90;;;20.16;100.00;97974.84;5016456;28;20077;-75
2023/08/13 06:58:19;;;;;;;4.80;3.25;;;20.20;99.90;;;20.48;100.00;97963.63;5001472;28;20493;-75
2023/08/13 07:00:47;;;;;;;6.50;3.45;;;20.40;99.90;;;20.56;100.00;97955.13;5002025;28;20061;-75
2023/08/13 07:03:14;;;;;;;4.40;2.67;;;20.60;99.90;;;20.89;100.00;97954.31;5014629;28;20068;-75
2023/08/13 07:05:41;;;;;;;6.93;2.80;;;20.80;99.90;;;20.72;100.00;97952.19;5000652;28;20066;-74
2023/08/13 07:08:11;;;;;;;5.97;2.83;;;20.60;99.90;;;20.84;100.00;97935.38;5002161;28;20544;-75
2023/08/13 07:10:39;;;;;;;5.32;2.40;;;20.70;99.90;;;20.96;100.00;97912.47;5005482;28;20052;-75
2023/08/13 07:13:07;;;;;;;4.40;1.92;;;20.60;99.90;;;20.60;100.00;97917.88;4999532;28;20057;-75
2023/08/13 07:15:34;;;;;;;4.80;1.50;;;20.70;99.90;;;21.04;100.00;97907.41;5002739;28;20054;-75
2023/08/13 07:18:01;;;;;;;4.13;1.55;;;20.90;99.90;;;21.03;100.00;97898.66;5002502;28;20065;-75
2023/08/13 07:20:28;;;;;;;4.32;1.50;;;21.00;99.90;;;20.89;100.00;97891.84;4998673;28;20067;-75
2023/08/13 07:22:58;;;;;;;6.35;1.63;;;21.10;99.90;;;20.84;100.00;97888.72;5000552;28;20124;-75
2023/08/13 07:25:25;;;;;;;3.95;1.30;;;21.00;99.90;;;21.00;100.00;97892.78;5002289;28;20050;-74
2023/08/13 07:27:53;;;;;;;8.65;1.65;;;21.00;99.90;;;20.73;100.00;97882.63;4998096;28;20105;-72
2023/08/13 07:30:21;;;;;;;6.75;1.35;;;21.00;99.90;;;21.11;100.00;97882.19;4998943;28;20104;-74
2023/08/13 07:32:49;;;;;;;3.72;1.45;;;21.00;99.90;;;21.07;100.00;97884.28;4998986;28;20104;-75
2023/08/13 07:35:16;;;;;;;3.95;1.42;;;21.10;99.90;;;21.38;100.00;97884.41;5015999;28;20486;-72
2023/08/13 07:37:43;;;;;;;6.65;1.30;;;21.20;99.90;;;21.61;100.00;97887.00;5000992;28;20104;-75
2023/08/13 07:40:12;;;;;;;5.93;1.38;;;21.40;99.90;;;22.04;100.00;97873.66;4999953;28;20525;-75
2023/08/13 07:42:40;;;;;;;4.93;1.35;;;21.70;99.90;;;21.85;100.00;97879.66;5001196;28;20136;-75
2023/08/13 07:45:10;;;;;;;2.83;1.08;;;21.90;99.90;;;22.14;100.00;97879.81;5007257;28;20466;-75
2023/08/13 07:47:39;;;;;;;3.65;1.13;;;22.10;99.90;;;22.27;100.00;97878.81;5023128;28;20081;-75
2023/08/13 07:50:07;;;;;;;4.63;1.40;;;22.20;99.90;;;22.26;100.00;97882.41;5001976;28;20049;-74
2023/08/13 07:52:35;;;;;;;3.95;1.17;;;22.40;99.90;;;21.92;100.00;97885.28;5004314;28;20096;-75
2023/08/13 07:55:03;;;;;;;4.85;1.30;;;22.40;99.90;;;21.96;100.00;97888.47;5005634;28;20049;-72
2023/08/13 07:57:31;;;;;;;5.85;1.67;;;22.20;99.90;;;21.95;100.00;97887.66;5002778;28;20053;-75
2023/08/13 07:59:58;;;;;;;4.18;1.00;;;22.20;99.90;;;22.19;100.00;97883.88;5006687;28;20077;-73
2023/08/13 08:02:26;;;;;;;5.20;1.30;;;22.40;99.90;;;22.11;100.00;97885.38;5003094;28;20167;-73
2023/08/13 08:04:54;;;;;;;4.35;1.42;;;22.30;99.90;;;22.34;100.00;97891.38;5003160;28;20057;-73
2023/08/13 08:07:22;;;;;;;4.05;1.15;;;22.20;99.90;;;22.26;100.00;97890.34;5002314;28;20049;-73
2023/08/13 08:09:49;;;;;;;5.90;1.10;;;22.30;99.90;;;22.41;100.00;97893.50;5007068;28;20077;-73
2023/08/13 08:12:16;;;;;;;4.80;1.10;;;22.30;99.90;;;21.95;100.00;97892.09;5001063;28;20089;-74
2023/08/13 08:14:43;;;;;;;3.13;1.10;;;22.30;99.90;;;22.68;100.00;97885.81;5002905;28;20145;-74
2023/08/13 08:17:10;;;;;;;3.00;0.90;;;22.70;99.90;;;22.72;100.00;97895.16;5000081;28;20050;-73
2023/08/13 08:19:38;;;;;;;4.10;1.30;;;22.60;99.90;;;22.40;100.00;97897.97;5003898;28;20114;-74
2023/08/13 08:22:05;;;;;;;4.05;1.15;;;22.60;99.90;;;22.90;100.00;97903.31;4987497;28;20553;-74
2023/08/13 08:24:32;;;;;;;4.63;1.20;;;22.80;99.90;;;23.02;100.00;97900.59;5005321;28;20066;-75
2023/08/13 08:27:00;;;;;;;3.95;0.98;;;23.10;99.90;;;23.06;100.00;97910.78;5001293;28;20556;-73
2023/08/13 08:29:27;;;;;;;5.15;1.60;;;23.00;99.90;;;23.26;100.00;97898.38;5003176;28;20054;-72
2023/08/13 08:31:54;;;;;;;2.45;1.00;;;23.00;99.90;;;22.87;100.00;97900.91;5001470;28;20053;-73
2023/08/13 08:34:21;;;;;;;5.93;1.00;;;23.10;99.90;;;23.39;100.00;97901.59;4986161;28;20058;-73
2023/08/13 08:36:51;;;;;;;4.60;1.23;;;23.30;99.90;;;23.15;100.00;97911.78;5002871;28;21877;-73
2023/08/13 08:39:18;;;;;;;4.03;1.20;;;23.40;99.90;;;23.81;100.00;97908.47;4999507;28;20112;-73
2023/08/13 08:41:46;;;;;;;5.15;1.30;;;23.70;99.90;;;23.39;100.00;97914.84;5004778;28;20476;-73
2023/08/13 08:44:21;;;;;;;3.35;1.00;;;23.70;99.90;;;23.25;100.00;97904.66;5001900;28;20121;-73
2023/08/13 08:46:53;;;;;;;4.75;1.92;;;23.70;99.90;;;23.35;100.00;97904.66;5016317;28;20085;-74
2023/08/13 08:49:22;;;;;;;5.72;1.20;;;23.50;99.90;;;23.37;100.00;97903.56;4984064;28;20131;-74
2023/08/13 08:51:50;;;;;;;5.45;1.08;;;23.70;99.90;;;23.48;100.00;97902.59;5000940;28;20049;-74
2023/08/13 08:54:18;;;;;;;2.80;0.90;;;23.70;99.90;;;23.87;100.00;97905.28;4997354;28;20050;-73
2023/08/13 08:56:46;;;;;;;4.35;1.10;;;23.80;99.90;;;23.77;100.00;97901.81;4978696;28;20135;-74
2023/08/13 08:59:13;;;;;;;2.78;1.00;;;24.00;99.90;;;24.01;100.00;97901.34;4996294;28;20053;-74
2023/08/13 09:01:40;;;;;;;3.55;1.00;;;24.40;99.90;;;23.99;100.00;97900.66;4988266;28;20107;-74
2023/08/13 09:04:08;;;;;;;8.38;1.80;;;24.40;99.90;;;24.29;100.00;97907.59;5004733;28;20176;-74
2023/08/13 09:06:56;;;;;;;5.07;0.90;;;24.10;99.90;;;24.50;100.00;97904.75;4989274;28;20057;-74
2023/08/13 09:09:24;;;;;;;5.18;1.10;;;24.00;99.90;;;23.48;100.00;97910.53;5002450;28;20077;-74
2023/08/13 09:11:53;;;;;;;4.70;1.02;;;24.20;99.90;;;23.91;100.00;97903.19;5002326;28;20046;-75
2023/08/13 09:14:22;;;;;;;4.28;0.90;;;24.10;99.90;;;23.94;100.00;97908.19;5004494;28;20499;-74
2023/08/13 09:16:52;;;;;;;3.92;0.77;;;24.30;99.90;;;24.56;100.00;97905.97;5000271;28;20042;-75
2023/08/13 09:19:27;;;;;;;5.72;1.15;;;24.30;99.90;;;24.49;100.00;97897.75;5004055;28;20057;-75
2023/08/13 09:22:06;;;;;;;3.50;1.02;;;24.30;99.90;;;24.74;100.00;97898.06;5003997;28;20058;-74
2023/08/13 09:24:39;;;;;;;2.65;1.00;;;24.50;99.90;;;24.02;100.00;97900.38;5003100;28;20050;-73
2023/08/13 09:27:08;;;;;;;4.65;1.10;;;24.40;99.90;;;24.33;100.00;97897.50;5006727;28;20046;-75
2023/08/13 09:29:37;;;;;;;4.82;0.98;;;24.60;99.90;;;24.68;100.00;97909.28;5005850;28;20050;-75
2023/08/13 09:32:05;;;;;;;4.07;0.95;;;24.60;99.90;;;24.45;100.00;97896.38;5004656;28;20056;-74
2023/08/13 09:34:33;;;;;;;7.68;1.23;;;24.60;99.90;;;24.52;100.00;97904.59;5005405;28;20045;-73
2023/08/13 09:37:01;;;;;;;3.75;0.95;;;24.60;99.90;;;25.02;100.00;97898.91;5003262;28;20053;-74
2023/08/13 09:39:31;;;;;;;4.00;1.10;;;24.40;99.90;;;24.58;100.00;97894.22;5000715;28;20112;-74
2023/08/13 09:41:59;;;;;;;3.90;0.80;;;24.90;99.90;;;24.61;100.00;97888.66;5004867;28;20058;-72
2023/08/13 09:44:28;;;;;;;3.63;0.90;;;25.10;99.90;;;24.42;100.00;97900.13;5001769;28;20057;-73
2023/08/13 09:47:02;;;;;;;5.70;1.30;;;25.20;99.90;;;24.17;100.00;97892.78;4999018;28;20080;-74
2023/08/13 09:49:34;;;;;;;4.55;0.82;;;25.10;99.90;;;24.67;100.00;97894.34;5004324;28;20519;-74
2023/08/13 09:52:08;;;;;;;4.60;1.45;;;25.00;99.90;;;24.10;100.00;97889.03;5001070;28;20608;-74
2023/08/13 09:54:46;;;;;;;3.58;0.80;;;24.80;99.90;;;24.38;100.00;97885.50;5012085;28;20049;-75
2023/08/13 09:57:17;;;;;;;4.30;1.00;;;24.50;99.90;;;24.67;100.00;97884.56;4991963;28;20064;-75
2023/08/13 09:59:45;;;;;;;4.97;0.98;;;24.60;99.90;;;25.22;100.00;97887.19;4996363;28;20171;-74
2023/08/13 10:02:14;;;;;;;5.63;1.10;;;24.90;99.90;;;25.19;100.00;97889.34;5001984;28;20132;-74
2023/08/13 10:04:42;;;;;;;3.20;0.95;;;24.80;99.90;;;25.22;100.00;97883.72;5001485;28;20621;-74
2023/08/13 10:07:11;;;;;;;3.85;0.93;;;25.20;99.90;;;25.03;100.00;97876.69;5001462;28;20053;-74
2023/08/13 10:09:39;;;;;;;4.60;1.00;;;24.80;99.90;;;25.43;100.00;97875.44;5014400;28;20529;-74
2023/08/13 10:12:10;;;;;;;3.15;1.00;;;25.20;99.90;;;25.13;100.00;97880.09;4998723;28;20496;-74
2023/08/13 10:14:38;;;;;;;3.63;0.98;;;;;;;25.18;100.00;97883.19;5002683;28;20046;-74
2023/08/13 10:17:06;;;;;;;4.25;1.15;;;25.30;99.90;;;25.24;100.00;97882.56;4990105;28;20177;-74